createdAt,value
2023-02-07T00:01:41.579Z,13.57
2023-02-07T00:04:07.984Z,16.98
2023-02-07T00:06:36.321Z,13.20
2023-02-07T00:09:05.460Z,10.65
2023-02-07T00:11:32.664Z,15.48
2023-02-07T00:13:59.790Z,16.65
2023-02-07T00:16:27.498Z,14.65
2023-02-07T00:18:54.596Z,10.80
2023-02-07T00:21:22.765Z,14.65
2023-02-07T00:23:49.771Z,14.05
2023-02-07T00:26:18.252Z,20.08
2023-02-07T00:28:44.682Z,14.80
2023-02-07T00:31:20.848Z,17.55
2023-02-07T00:33:48.443Z,13.20
2023-02-07T00:36:18.134Z,14.88
2023-02-07T00:38:45.221Z,14.60
2023-02-07T00:41:12.725Z,18.08
2023-02-07T00:43:39.123Z,15.68
2023-02-07T00:46:05.743Z,11.93
2023-02-07T00:48:33.156Z,17.45
2023-02-07T00:50:59.909Z,18.17
2023-02-07T00:53:27.762Z,14.52
2023-02-07T00:55:54.099Z,20.08
2023-02-07T00:58:21.043Z,15.50
2023-02-07T01:00:47.919Z,13.43
2023-02-07T01:03:14.426Z,13.23
2023-02-07T01:05:41.472Z,20.65
2023-02-07T01:08:07.838Z,16.90
2023-02-07T01:10:34.499Z,15.20
2023-02-07T01:13:00.801Z,14.48
2023-02-07T01:15:27.189Z,17.90
2023-02-07T01:17:53.566Z,16.35
2023-02-07T01:20:20.044Z,18.33
2023-02-07T01:22:46.468Z,14.10
2023-02-07T01:25:12.978Z,18.75
2023-02-07T01:27:39.301Z,17.35
2023-02-07T01:30:06.186Z,16.92
2023-02-07T01:32:33.584Z,15.75
2023-02-07T01:35:00.092Z,19.75
2023-02-07T01:37:27.276Z,19.05
2023-02-07T01:39:53.748Z,18.13
2023-02-07T01:42:22.150Z,12.73
2023-02-07T01:45:23.796Z,15.80
2023-02-07T01:47:52.471Z,16.35
2023-02-07T01:50:18.925Z,15.93
2023-02-07T01:52:45.825Z,17.58
2023-02-07T01:55:16.736Z,17.33
2023-02-07T01:57:44.572Z,19.88
2023-02-07T02:00:14.369Z,17.27
2023-02-07T02:02:40.950Z,20.20
2023-02-07T02:05:08.702Z,17.67
2023-02-07T02:07:37.356Z,15.77
2023-02-07T02:10:10.242Z,16.83
2023-02-07T02:12:57.587Z,17.55
2023-02-07T02:15:34.628Z,16.60
2023-02-07T02:18:12.854Z,15.77
2023-02-07T02:20:58.101Z,18.10
2023-02-07T02:23:39.179Z,16.20
2023-02-07T02:26:27.496Z,16.63
2023-02-07T02:29:09.564Z,17.48
2023-02-07T02:31:57.891Z,15.80
2023-02-07T02:34:46.813Z,16.08
2023-02-07T02:37:25.433Z,18.88
2023-02-07T02:40:14.000Z,15.95
2023-02-07T02:43:01.745Z,12.55
2023-02-07T02:45:35.740Z,22.98
2023-02-07T02:50:30.752Z,18.55
2023-02-07T02:52:57.619Z,13.85
2023-02-07T02:55:47.744Z,15.15
2023-02-07T02:58:51.550Z,15.80
2023-02-07T03:01:35.393Z,16.77
2023-02-07T03:04:13.925Z,17.70
2023-02-07T03:07:14.001Z,17.25
2023-02-07T03:09:50.214Z,20.52
2023-02-07T03:12:24.971Z,18.27
2023-02-07T03:15:27.236Z,18.90
2023-02-07T03:18:09.820Z,15.05
2023-02-07T03:20:46.500Z,13.20
2023-02-07T03:23:15.175Z,16.95
2023-02-07T03:25:44.321Z,13.98
2023-02-07T03:28:13.139Z,19.30
2023-02-07T03:30:42.004Z,18.75
2023-02-07T03:33:13.045Z,21.98
2023-02-07T03:35:54.696Z,16.73
2023-02-07T03:38:21.483Z,18.00
2023-02-07T03:40:52.109Z,17.88
2023-02-07T03:43:29.257Z,15.23
2023-02-07T03:45:56.692Z,16.48
2023-02-07T03:48:23.469Z,19.33
2023-02-07T03:50:49.955Z,20.30
2023-02-07T03:53:16.368Z,17.25
2023-02-07T03:55:42.655Z,15.32
2023-02-07T03:58:09.203Z,14.25
2023-02-07T04:00:36.563Z,17.58
2023-02-07T04:03:04.441Z,17.10
2023-02-07T04:05:30.941Z,16.15
2023-02-07T04:07:57.331Z,18.98
2023-02-07T04:10:23.626Z,20.90
2023-02-07T04:12:49.898Z,19.13
2023-02-07T04:15:16.382Z,16.50
2023-02-07T04:17:42.674Z,19.35
2023-02-07T04:20:13.444Z,15.88
2023-02-07T04:22:39.888Z,20.23
2023-02-07T04:25:06.474Z,14.57
2023-02-07T04:27:32.792Z,18.02
2023-02-07T04:29:59.145Z,16.98
2023-02-07T04:32:25.494Z,17.95
2023-02-07T04:34:51.804Z,20.98
2023-02-07T04:37:18.166Z,19.85
2023-02-07T04:39:44.459Z,16.92
2023-02-07T04:42:10.809Z,25.45
2023-02-07T04:44:37.103Z,21.00
2023-02-07T04:47:03.411Z,17.95
2023-02-07T04:49:30.268Z,23.90
2023-02-07T04:51:57.167Z,17.45
2023-02-07T04:54:23.544Z,19.23
2023-02-07T04:56:49.953Z,18.75
2023-02-07T04:59:16.259Z,15.65
2023-02-07T05:01:42.555Z,18.42
2023-02-07T05:04:09.038Z,19.35
2023-02-07T05:06:35.360Z,15.77
2023-02-07T05:09:01.661Z,19.77
2023-02-07T05:11:28.093Z,21.70
2023-02-07T05:13:54.375Z,20.73
2023-02-07T05:16:20.688Z,20.13
2023-02-07T05:18:47.096Z,15.25
2023-02-07T05:21:13.498Z,19.25
2023-02-07T05:23:39.824Z,16.13
2023-02-07T05:26:06.120Z,18.08
2023-02-07T05:28:32.443Z,20.35
2023-02-07T05:30:59.015Z,19.65
2023-02-07T05:33:25.611Z,15.38
2023-02-07T05:35:51.903Z,19.83
2023-02-07T05:38:19.913Z,18.17
2023-02-07T05:40:47.922Z,17.45
2023-02-07T05:43:14.721Z,15.90
2023-02-07T05:45:41.440Z,18.98
2023-02-07T05:48:08.031Z,21.02
2023-02-07T05:50:34.573Z,19.10
2023-02-07T05:53:02.625Z,20.65
2023-02-07T05:55:29.063Z,21.25
2023-02-07T05:57:56.040Z,22.33
2023-02-07T06:00:22.519Z,17.35
2023-02-07T06:02:48.981Z,23.23
2023-02-07T06:05:17.831Z,18.75
2023-02-07T06:07:44.651Z,22.70
2023-02-07T06:10:11.643Z,21.75
2023-02-07T06:12:38.103Z,23.58
2023-02-07T06:15:04.836Z,17.70
2023-02-07T06:17:31.326Z,17.75
2023-02-07T06:19:57.674Z,20.15
2023-02-07T06:22:23.990Z,21.48
2023-02-07T06:24:50.338Z,14.82
2023-02-07T06:27:16.637Z,14.05
2023-02-07T06:29:42.937Z,15.65
2023-02-07T06:32:09.293Z,23.08
2023-02-07T06:34:35.652Z,20.95
2023-02-07T06:37:01.994Z,21.45
2023-02-07T06:39:28.398Z,24.48
2023-02-07T06:41:54.819Z,22.65
2023-02-07T06:44:21.208Z,23.35
2023-02-07T06:46:47.513Z,14.25
2023-02-07T06:49:13.916Z,23.17
2023-02-07T06:51:40.222Z,21.80
2023-02-07T06:54:06.509Z,22.02
2023-02-07T06:56:32.828Z,25.48
2023-02-07T06:58:59.191Z,23.75
2023-02-07T07:01:25.674Z,26.17
2023-02-07T07:03:52.276Z,22.13
2023-02-07T07:06:18.625Z,26.95
2023-02-07T07:08:45.078Z,24.58
2023-02-07T07:11:11.497Z,19.63
2023-02-07T07:13:37.870Z,28.00
2023-02-07T07:16:04.429Z,25.77
2023-02-07T07:18:30.778Z,20.52
2023-02-07T07:20:57.092Z,20.75
2023-02-07T07:23:23.552Z,19.17
2023-02-07T07:25:50.113Z,23.77
2023-02-07T07:28:16.437Z,27.33
2023-02-07T07:30:42.838Z,29.42
2023-02-07T07:33:09.170Z,25.98
2023-02-07T07:35:35.473Z,30.17
2023-02-07T07:38:01.794Z,24.83
2023-02-07T07:40:28.092Z,25.98
2023-02-07T07:42:54.375Z,22.30
2023-02-07T07:45:20.692Z,18.73
2023-02-07T07:47:47.039Z,22.42
2023-02-07T07:50:13.798Z,22.88
2023-02-07T07:52:40.251Z,24.20
2023-02-07T07:55:07.104Z,16.58
2023-02-07T07:57:33.430Z,25.77
2023-02-07T07:59:59.756Z,19.35
2023-02-07T08:02:26.063Z,23.00
2023-02-07T08:04:52.382Z,19.70
2023-02-07T08:07:18.769Z,25.05
2023-02-07T08:09:45.081Z,18.33
2023-02-07T08:12:11.399Z,25.35
2023-02-07T08:14:37.708Z,22.65
2023-02-07T08:17:04.021Z,18.02
2023-02-07T08:19:30.336Z,22.13
2023-02-07T08:21:56.650Z,22.02
2023-02-07T08:24:23.062Z,21.75
2023-02-07T08:26:49.442Z,20.17
2023-02-07T08:29:15.736Z,16.90
2023-02-07T08:31:42.084Z,21.95
2023-02-07T08:34:08.459Z,23.50
2023-02-07T08:36:34.757Z,27.55
2023-02-07T08:39:01.066Z,30.77
2023-02-07T08:41:27.418Z,19.95
2023-02-07T08:43:53.752Z,20.38
2023-02-07T08:46:20.081Z,24.30
2023-02-07T08:48:46.433Z,21.95
2023-02-07T08:51:12.903Z,19.70
2023-02-07T08:53:39.232Z,21.42
2023-02-07T08:56:05.871Z,23.25
2023-02-07T08:58:32.187Z,18.10
2023-02-07T09:00:58.546Z,20.42
2023-02-07T09:03:24.865Z,22.45
2023-02-07T09:05:51.138Z,18.48
2023-02-07T09:08:17.411Z,18.30
2023-02-07T09:10:45.935Z,22.88
2023-02-07T09:13:13.547Z,23.38
2023-02-07T09:15:39.858Z,19.45
2023-02-07T09:18:06.209Z,23.35
2023-02-07T09:20:32.589Z,20.95
2023-02-07T09:22:58.895Z,18.75
2023-02-07T09:25:25.188Z,24.60
2023-02-07T09:27:51.826Z,19.17
2023-02-07T09:30:18.479Z,22.08
2023-02-07T09:32:44.833Z,23.23
2023-02-07T09:35:11.196Z,21.65
2023-02-07T09:37:48.698Z,24.95
2023-02-07T09:40:18.598Z,19.63
2023-02-07T09:42:55.211Z,21.10
2023-02-07T09:45:25.292Z,26.58
2023-02-07T09:47:59.960Z,20.88
2023-02-07T09:50:30.997Z,16.15
2023-02-07T09:53:12.417Z,18.55
2023-02-07T09:55:50.431Z,22.17
2023-02-07T09:58:44.710Z,21.92
2023-02-07T10:01:15.563Z,22.92
2023-02-07T10:04:04.087Z,17.55
2023-02-07T10:06:30.595Z,26.00
2023-02-07T10:09:00.142Z,18.95
2023-02-07T10:11:51.675Z,21.85
2023-02-07T10:14:44.155Z,19.52
2023-02-07T10:17:31.856Z,21.27
2023-02-07T10:20:35.800Z,20.35
2023-02-07T10:23:20.119Z,21.33
2023-02-07T10:26:04.823Z,22.08
2023-02-07T10:28:52.442Z,21.83
2023-02-07T10:31:19.161Z,21.98
2023-02-07T10:33:52.917Z,21.98
2023-02-07T10:36:19.247Z,19.75
2023-02-07T10:38:56.743Z,18.92
2023-02-07T10:41:38.293Z,16.40
2023-02-07T10:44:06.790Z,21.15
2023-02-07T10:46:34.899Z,19.20
2023-02-07T10:49:01.832Z,17.83
2023-02-07T10:51:42.411Z,16.80
2023-02-07T10:54:11.566Z,25.08
2023-02-07T10:56:46.603Z,20.85
2023-02-07T10:59:31.253Z,18.70
2023-02-07T11:01:57.694Z,22.90
2023-02-07T11:04:35.489Z,20.08
2023-02-07T11:07:04.331Z,16.88
2023-02-07T11:09:30.688Z,17.20
2023-02-07T11:11:57.046Z,19.45
2023-02-07T11:14:26.364Z,16.40
2023-02-07T11:16:57.600Z,19.15
2023-02-07T11:19:27.443Z,16.00
2023-02-07T11:22:17.771Z,14.80
2023-02-07T11:24:44.301Z,13.88
2023-02-07T11:27:10.611Z,13.95
2023-02-07T11:29:49.589Z,17.70
2023-02-07T11:32:17.302Z,14.18
2023-02-07T11:34:53.820Z,15.00
2023-02-07T11:37:30.321Z,16.33
2023-02-07T11:40:20.248Z,17.45
2023-02-07T11:42:56.877Z,16.25
2023-02-07T11:45:23.442Z,17.83
2023-02-07T11:47:54.918Z,20.00
2023-02-07T11:50:35.388Z,18.83
2023-02-07T11:53:02.529Z,19.90
2023-02-07T11:55:41.117Z,19.35
2023-02-07T11:58:11.428Z,14.70
2023-02-07T12:00:38.769Z,18.92
2023-02-07T12:03:21.754Z,18.65
2023-02-07T12:05:50.689Z,18.25
2023-02-07T12:08:20.776Z,16.65
2023-02-07T12:11:00.492Z,10.95
2023-02-07T12:13:35.290Z,17.05
2023-02-07T12:16:07.322Z,15.23
2023-02-07T12:18:41.446Z,15.40
2023-02-07T12:21:19.057Z,15.80
2023-02-07T12:23:53.025Z,16.35
2023-02-07T12:26:24.692Z,19.25
2023-02-07T12:29:12.483Z,16.33
2023-02-07T12:31:49.387Z,17.38
2023-02-07T12:34:27.625Z,17.05
2023-02-07T12:37:04.551Z,15.23
2023-02-07T12:39:43.019Z,18.45
2023-02-07T12:42:32.934Z,18.00
2023-02-07T12:45:01.711Z,12.18
2023-02-07T12:47:48.119Z,13.48
2023-02-07T12:50:21.527Z,14.05
2023-02-07T12:53:18.553Z,13.70
2023-02-07T12:55:53.915Z,18.15
2023-02-07T12:58:45.757Z,16.85
2023-02-07T13:01:35.121Z,16.63
2023-02-07T13:04:19.372Z,13.32
2023-02-07T13:07:07.795Z,13.20
2023-02-07T13:09:50.260Z,12.70
2023-02-07T13:12:29.042Z,13.52
2023-02-07T13:15:08.247Z,11.68
2023-02-07T13:17:47.864Z,13.00
2023-02-07T13:20:51.934Z,12.52
2023-02-07T13:23:24.959Z,15.90
2023-02-07T13:25:56.872Z,14.40
2023-02-07T13:28:27.395Z,11.30
2023-02-07T13:30:54.718Z,11.27
2023-02-07T13:33:39.718Z,13.50
2023-02-07T13:36:24.481Z,14.00
2023-02-07T13:39:09.070Z,11.60
2023-02-07T13:41:52.641Z,14.40
2023-02-07T13:44:34.628Z,15.45
2023-02-07T13:47:13.142Z,15.00
2023-02-07T13:50:17.218Z,10.85
2023-02-07T13:52:52.215Z,10.20
2023-02-07T13:55:32.380Z,11.93
2023-02-07T13:57:59.085Z,12.82
2023-02-07T14:00:28.836Z,8.70
2023-02-07T14:02:59.997Z,10.93
2023-02-07T14:05:31.300Z,6.25
2023-02-07T14:07:59.654Z,11.35
2023-02-07T14:10:44.595Z,10.35
2023-02-07T14:13:27.325Z,9.48
2023-02-07T14:16:10.097Z,12.27
2023-02-07T14:18:45.916Z,12.27
2023-02-07T14:21:18.330Z,11.73
2023-02-07T14:24:09.037Z,10.18
2023-02-07T14:26:38.072Z,10.80
2023-02-07T14:29:22.762Z,12.15
2023-02-07T14:31:59.718Z,10.30
2023-02-07T14:35:04.278Z,9.80
2023-02-07T14:37:39.534Z,9.57
2023-02-07T14:40:25.665Z,13.30
2023-02-07T14:43:12.196Z,12.88
2023-02-07T14:45:50.835Z,12.88
2023-02-07T14:48:42.949Z,12.77
2023-02-07T14:51:14.464Z,10.45
2023-02-07T14:53:42.451Z,12.48
2023-02-07T14:56:26.170Z,11.10
2023-02-07T14:58:56.774Z,9.10
2023-02-07T15:01:24.693Z,12.95
2023-02-07T15:04:06.932Z,12.45
2023-02-07T15:06:40.214Z,11.65
2023-02-07T15:09:16.681Z,11.50
2023-02-07T15:11:43.012Z,10.43
2023-02-07T15:14:21.323Z,10.13
2023-02-07T15:16:48.092Z,12.82
2023-02-07T15:19:22.485Z,11.57
2023-02-07T15:21:49.058Z,9.27
2023-02-07T15:24:50.636Z,10.23
2023-02-07T15:27:23.297Z,12.10
2023-02-07T15:30:01.231Z,14.70
2023-02-07T15:32:30.290Z,10.52
2023-02-07T15:35:13.630Z,10.48
2023-02-07T15:37:39.917Z,10.15
2023-02-07T15:40:06.734Z,8.98
2023-02-07T15:42:33.050Z,12.15
2023-02-07T15:44:59.328Z,13.32
2023-02-07T15:47:28.750Z,10.95
2023-02-07T15:50:19.768Z,12.60
2023-02-07T15:52:52.137Z,10.52
2023-02-07T15:55:29.786Z,10.38
2023-02-07T15:57:56.732Z,12.45
2023-02-07T16:00:32.187Z,10.02
2023-02-07T16:03:16.604Z,10.55
2023-02-07T16:05:43.035Z,11.63
2023-02-07T16:08:32.583Z,9.00
2023-02-07T16:11:17.843Z,9.40
2023-02-07T16:13:53.295Z,8.50
2023-02-07T16:16:25.074Z,10.38
2023-02-07T16:18:52.021Z,9.05
2023-02-07T16:21:24.260Z,12.40
2023-02-07T16:23:53.371Z,9.80
2023-02-07T16:26:25.308Z,10.88
2023-02-07T16:28:51.719Z,13.35
2023-02-07T16:31:18.183Z,12.68
2023-02-07T16:33:44.583Z,7.90
2023-02-07T16:36:18.572Z,8.55
2023-02-07T16:38:44.959Z,10.25
2023-02-07T16:41:32.192Z,8.57
2023-02-07T16:44:00.957Z,12.70
2023-02-07T16:46:27.457Z,11.73
2023-02-07T16:48:53.865Z,12.68
2023-02-07T16:51:20.255Z,14.15
2023-02-07T16:53:46.730Z,14.85
2023-02-07T16:56:18.620Z,15.15
2023-02-07T16:58:44.946Z,11.52
2023-02-07T17:01:19.149Z,12.38
2023-02-07T17:03:45.926Z,18.98
2023-02-07T17:06:21.006Z,14.15
2023-02-07T17:08:48.544Z,12.52
2023-02-07T17:11:18.085Z,13.93
2023-02-07T17:13:44.409Z,16.42
2023-02-07T17:16:14.779Z,14.95
2023-02-07T17:18:41.558Z,22.42
2023-02-07T17:21:08.539Z,16.10
2023-02-07T17:23:35.925Z,20.98
2023-02-07T17:26:03.812Z,19.15
2023-02-07T17:33:22.670Z,15.20
2023-02-07T17:35:49.885Z,17.08
2023-02-07T17:38:16.236Z,20.23
2023-02-07T17:40:42.544Z,21.80
2023-02-07T17:43:09.471Z,27.05
2023-02-07T17:45:37.087Z,22.58
2023-02-07T17:48:04.328Z,22.80
2023-02-07T17:50:34.689Z,20.00
2023-02-07T17:53:01.615Z,21.77
2023-02-07T17:55:29.840Z,19.02
2023-02-07T17:57:56.716Z,18.42
2023-02-07T18:00:26.711Z,18.95
2023-02-07T18:02:53.148Z,21.02
2023-02-07T18:05:19.805Z,22.23
2023-02-07T18:07:47.262Z,17.25
2023-02-07T18:10:20.367Z,19.70
2023-02-07T18:12:46.729Z,17.95
2023-02-07T18:15:13.928Z,14.95
2023-02-07T18:17:40.925Z,19.38
2023-02-07T18:20:08.277Z,16.88
2023-02-07T18:22:34.745Z,17.90
2023-02-07T18:25:01.058Z,17.65
2023-02-07T18:27:27.501Z,27.90
2023-02-07T18:29:53.795Z,26.52
2023-02-07T18:32:20.120Z,26.10
2023-02-07T18:34:46.453Z,26.20
2023-02-07T18:37:12.871Z,27.85
2023-02-07T18:39:39.204Z,26.02
2023-02-07T18:42:05.757Z,23.77
2023-02-07T18:44:32.090Z,20.52
2023-02-07T18:46:58.702Z,25.02
2023-02-07T18:49:25.067Z,25.17
2023-02-07T18:51:51.474Z,25.00
2023-02-07T18:54:17.904Z,28.27
2023-02-07T18:56:44.284Z,26.95
2023-02-07T18:59:10.731Z,29.20
2023-02-07T19:01:37.084Z,34.97
2023-02-07T19:04:03.529Z,24.75
2023-02-07T19:06:33.811Z,27.70
2023-02-07T19:09:00.297Z,27.33
2023-02-07T19:11:26.990Z,30.85
2023-02-07T19:13:53.333Z,32.85
2023-02-07T19:16:22.993Z,28.92
2023-02-07T19:18:49.790Z,30.83
2023-02-07T19:21:19.178Z,25.23
2023-02-07T19:23:45.596Z,27.08
2023-02-07T19:26:12.329Z,21.08
2023-02-07T19:28:38.957Z,27.02
2023-02-07T19:31:10.878Z,28.23
2023-02-07T19:33:37.346Z,36.83
2023-02-07T19:36:09.121Z,31.05
2023-02-07T19:38:36.032Z,21.80
2023-02-07T19:41:03.045Z,28.52
2023-02-07T19:43:29.644Z,28.20
2023-02-07T19:45:56.266Z,38.03
2023-02-07T19:48:23.276Z,32.03
2023-02-07T19:51:12.014Z,33.60
2023-02-07T19:53:38.493Z,28.30
2023-02-07T19:56:07.142Z,22.67
2023-02-07T19:58:34.018Z,31.80
2023-02-07T20:01:01.026Z,27.63
2023-02-07T20:03:27.834Z,34.38
2023-02-07T20:05:54.486Z,25.48
2023-02-07T20:08:21.431Z,30.23
2023-02-07T20:10:48.463Z,26.52
2023-02-07T20:13:15.232Z,27.15
2023-02-07T20:15:46.524Z,28.92
2023-02-07T20:18:13.957Z,27.83
2023-02-07T20:20:42.654Z,24.88
2023-02-07T20:23:09.905Z,32.95
2023-02-07T20:25:38.248Z,32.92
2023-02-07T20:28:06.094Z,40.80
2023-02-07T20:30:32.792Z,43.72
2023-02-07T20:32:59.366Z,47.42
2023-02-07T20:35:26.393Z,43.90
2023-02-07T20:37:52.767Z,31.52
2023-02-07T20:40:19.197Z,23.23
2023-02-07T20:42:45.524Z,19.92
2023-02-07T20:45:11.880Z,28.55
2023-02-07T20:47:38.771Z,25.63
2023-02-07T20:50:06.468Z,30.98
2023-02-07T20:52:32.829Z,26.10
2023-02-07T20:54:59.154Z,26.05
2023-02-07T20:57:25.491Z,25.48
2023-02-07T20:59:51.784Z,23.73
2023-02-07T21:02:18.314Z,26.17
2023-02-07T21:04:44.645Z,25.73
2023-02-07T21:07:10.944Z,25.73
2023-02-07T21:09:37.450Z,25.75
2023-02-07T21:12:04.068Z,28.70
2023-02-07T21:14:31.960Z,26.38
2023-02-07T21:17:01.029Z,22.90
2023-02-07T21:19:27.873Z,27.13
2023-02-07T21:21:55.117Z,28.23
2023-02-07T21:24:21.647Z,28.70
2023-02-07T21:26:48.534Z,28.35
2023-02-07T21:29:15.084Z,22.05
2023-02-07T21:31:41.534Z,29.50
2023-02-07T21:34:07.942Z,24.13
2023-02-07T21:36:36.388Z,29.10
2023-02-07T21:39:04.691Z,29.08
2023-02-07T21:41:31.233Z,28.67
2023-02-07T21:43:58.806Z,29.63
2023-02-07T21:46:28.840Z,26.40
2023-02-07T21:49:06.879Z,31.48
2023-02-07T21:51:35.141Z,33.35
2023-02-07T21:54:03.378Z,30.33
2023-02-07T21:56:32.223Z,33.45
2023-02-07T21:59:04.701Z,40.45
2023-02-07T22:01:31.858Z,32.90
2023-02-07T22:04:00.341Z,30.83
2023-02-07T22:06:27.618Z,32.80
2023-02-07T22:08:56.427Z,29.75
2023-02-07T22:11:24.856Z,28.08
2023-02-07T22:13:52.920Z,33.38
2023-02-07T22:16:21.306Z,32.53
2023-02-07T22:18:48.352Z,31.80
2023-02-07T22:21:26.785Z,34.95
2023-02-07T22:23:55.503Z,33.08
2023-02-07T22:26:22.548Z,35.78
2023-02-07T22:28:49.477Z,39.03
2023-02-07T22:31:19.573Z,34.42
2023-02-07T22:33:46.719Z,35.38
2023-02-07T22:36:13.951Z,30.70
2023-02-07T22:38:40.358Z,28.58
2023-02-07T22:41:06.706Z,29.48
2023-02-07T22:43:33.093Z,30.88
2023-02-07T22:46:05.126Z,36.60
2023-02-07T22:48:32.761Z,32.30
2023-02-07T22:51:09.262Z,29.02
2023-02-07T22:53:35.561Z,31.27
2023-02-07T22:56:01.953Z,26.02
2023-02-07T22:58:28.257Z,30.10
2023-02-07T23:00:54.605Z,33.08
2023-02-07T23:03:20.897Z,32.28
2023-02-07T23:05:47.361Z,28.00
2023-02-07T23:08:13.758Z,28.10
2023-02-07T23:10:41.711Z,25.17
2023-02-07T23:13:08.096Z,33.30
2023-02-07T23:15:34.497Z,30.52
2023-02-07T23:18:00.913Z,31.77
2023-02-07T23:20:27.307Z,31.35
2023-02-07T23:22:53.898Z,24.95
2023-02-07T23:25:20.440Z,32.03
2023-02-07T23:27:46.889Z,33.50
2023-02-07T23:30:14.668Z,30.65
2023-02-07T23:32:41.644Z,32.33
2023-02-07T23:35:08.624Z,25.42
2023-02-07T23:37:35.292Z,25.45
2023-02-07T23:40:01.864Z,28.58
2023-02-07T23:42:28.167Z,28.83
2023-02-07T23:44:54.464Z,30.20
2023-02-07T23:47:20.800Z,31.67
2023-02-07T23:49:47.116Z,29.80
2023-02-07T23:52:13.588Z,28.38
2023-02-07T23:54:39.876Z,31.52
2023-02-07T23:57:06.418Z,32.38
2023-02-07T23:59:32.913Z,33.67
